| time (UTC) | temp C | wind direction | speed KPH | gust KPH | rain 1hr cm | rain 24hr cm | rain mn cm | humidity % | barometer mb |
| 20260507095712 | 10 | 101 | 0.0 | 1.6 | 0.00 | 0.00 | 0.00 | 87 | 1017.9 |
| 20260507095208 | 10 | 69 | 0.0 | 0.0 | 0.00 | 0.00 | 0.00 | 87 | 1017.9 |
| 20260507094706 | 10 | 98 | 0.0 | 0.0 | 0.00 | 0.00 | 0.00 | 87 | 1017.7 |
| 20260507094202 | 10 | 92 | 1.6 | 1.6 | 0.00 | 0.00 | 0.00 | 87 | 1017.7 |
| 20260507093659 | 10 | 85 | 0.0 | 0.0 | 0.00 | 0.00 | 0.00 | 87 | 1017.8 |
| 20260507093158 | 10 | 126 | 1.6 | 3.2 | 0.00 | 0.00 | 0.00 | 88 | 1017.6 |
| 20260507092655 | 10 | 111 | 1.6 | 3.2 | 0.00 | 0.00 | 0.00 | 88 | 1017.7 |
| 20260507092151 | 10 | 97 | 3.2 | 3.2 | 0.00 | 0.00 | 0.00 | 88 | 1018.0 |
| 20260507091648 | 10 | 219 | 4.8 | 4.8 | 0.00 | 0.00 | 0.00 | 89 | 1017.6 |
| 20260507091144 | 10 | 144 | 3.2 | 3.2 | 0.00 | 0.00 | 0.00 | 89 | 1017.9 |
| 20260507090639 | 10 | 113 | 1.6 | 1.6 | 0.00 | 0.00 | 0.00 | 89 | 1017.8 |
| 20260507090137 | 10 | 123 | 1.6 | 1.6 | 0.00 | 0.00 | 0.00 | 89 | 1017.7 |
| 20260507085634 | 10 | 132 | 0.0 | 0.0 | 0.00 | 0.00 | 0.00 | 89 | 1017.8 |
| 20260507085131 | 10 | 103 | 0.0 | 1.6 | 0.00 | 0.00 | 0.00 | 89 | 1017.8 |
| 20260507084627 | 10 | 114 | 1.6 | 1.6 | 0.00 | 0.00 | 0.00 | 89 | 1017.7 |
| 20260507084124 | 10 | 99 | 1.6 | 3.2 | 0.00 | 0.00 | 0.00 | 89 | 1017.8 |
| 20260507083621 | 10 | 107 | 1.6 | 1.6 | 0.00 | 0.00 | 0.00 | 89 | 1017.8 |
| 20260507083118 | 10 | 173 | 3.2 | 3.2 | 0.00 | 0.00 | 0.00 | 89 | 1017.7 |
| 20260507082614 | 10 | 134 | 1.6 | 3.2 | 0.00 | 0.00 | 0.00 | 89 | 1017.5 |
| 20260507082110 | 10 | 120 | 6.4 | 9.7 | 0.00 | 0.00 | 0.00 | 89 | 1017.8 |
| 20260507081607 | 10 | 129 | 1.6 | 3.2 | 0.00 | 0.00 | 0.00 | 89 | 1017.8 |
| 20260507081104 | 10 | 111 | 4.8 | 4.8 | 0.00 | 0.00 | 0.00 | 90 | 1017.7 |
| 20260507080600 | 10 | 247 | 4.8 | 9.7 | 0.00 | 0.00 | 0.00 | 90 | 1017.8 |
| 20260507080056 | 10 | 165 | 1.6 | 1.6 | 0.00 | 0.00 | 0.00 | 90 | 1017.6 |
| 20260507075551 | 10 | 133 | 6.4 | 8.0 | 0.00 | 0.00 | 0.00 | 90 | 1017.5 |
| 20260507075048 | 10 | 114 | 4.8 | 4.8 | 0.00 | 0.00 | 0.00 | 90 | 1017.7 |
| 20260507074545 | 10 | 66 | 3.2 | 4.8 | 0.00 | 0.00 | 0.00 | 90 | 1017.6 |
| 20260507074043 | 10 | 133 | 4.8 | 4.8 | 0.00 | 0.00 | 0.00 | 91 | 1017.3 |
| 20260507073539 | 10 | 212 | 4.8 | 9.7 | 0.00 | 0.00 | 0.00 | 91 | 1017.7 |
| 20260507073036 | 10 | 157 | 4.8 | 4.8 | 0.00 | 0.00 | 0.00 | 91 | 1017.7 |
| 20260507072533 | 10 | 186 | 3.2 | 3.2 | 0.00 | 0.00 | 0.00 | 91 | 1017.5 |
| 20260507072030 | 10 | 181 | 6.4 | 8.0 | 0.00 | 0.00 | 0.00 | 92 | 1017.4 |
| 20260507071527 | 10 | 130 | 3.2 | 8.0 | 0.00 | 0.00 | 0.00 | 92 | 1017.4 |
| 20260507071024 | 10 | 228 | 3.2 | 8.0 | 0.00 | 0.00 | 0.00 | 92 | 1017.4 |
| 20260507070521 | 10 | 121 | 4.8 | 8.0 | 0.00 | 0.00 | 0.00 | 92 | 1017.4 |
| 20260507070018 | 10 | 145 | 4.8 | 8.0 | 0.00 | 0.00 | 0.00 | 93 | 1017.3 |
| 20260507065514 | 10 | 136 | 3.2 | 3.2 | 0.00 | 0.00 | 0.00 | 93 | 1017.4 |
| 20260507065012 | 10 | 181 | 3.2 | 3.2 | 0.00 | 0.00 | 0.00 | 93 | 1017.4 |
| 20260507064510 | 10 | 210 | 8.0 | 11.3 | 0.00 | 0.00 | 0.00 | 93 | 1017.6 |
| 20260507064008 | 10 | 159 | 9.7 | 11.3 | 0.00 | 0.00 | 0.00 | 93 | 1017.6 |
| 20260507063504 | 10 | 165 | 3.2 | 8.0 | 0.00 | 0.00 | 0.00 | 93 | 1017.5 |
| 20260507063002 | 10 | 147 | 6.4 | 8.0 | 0.00 | 0.00 | 0.00 | 93 | 1017.5 |
| 20260507062458 | 10 | 103 | 1.6 | 3.2 | 0.00 | 0.00 | 0.00 | 93 | 1017.6 |
| 20260507061956 | 10 | 155 | 1.6 | 4.8 | 0.00 | 0.00 | 0.00 | 93 | 1017.5 |
| 20260507061454 | 10 | 150 | 6.4 | 9.7 | 0.00 | 0.00 | 0.00 | 93 | 1017.6 |
| 20260507060952 | 10 | 105 | 3.2 | 3.2 | 0.00 | 0.00 | 0.00 | 93 | 1017.8 |
| 20260507060448 | 11 | 141 | 3.2 | 8.0 | 0.00 | 0.00 | 0.00 | 92 | 1017.9 |
| 20260507055945 | 11 | 94 | 1.6 | 3.2 | 0.00 | 0.00 | 0.00 | 92 | 1017.6 |
| 20260507055440 | 11 | 103 | 1.6 | 1.6 | 0.00 | 0.00 | 0.00 | 92 | 1017.6 |
| 20260507054937 | 11 | 109 | 3.2 | 4.8 | 0.00 | 0.00 | 0.00 | 91 | 1017.8 |
| 20260507054433 | 11 | 103 | 3.2 | 3.2 | 0.00 | 0.00 | 0.00 | 91 | 1017.8 |
| 20260507053931 | 11 | 127 | 1.6 | 3.2 | 0.00 | 0.00 | 0.00 | 90 | 1017.6 |
| 20260507053428 | 11 | 113 | 1.6 | 1.6 | 0.00 | 0.00 | 0.00 | 90 | 1017.7 |
| 20260507052927 | 11 | 101 | 0.0 | 1.6 | 0.00 | 0.00 | 0.00 | 90 | 1017.6 |
| 20260507052424 | 11 | 104 | 1.6 | 1.6 | 0.00 | 0.00 | 0.00 | 89 | 1017.7 |
| 20260507051921 | 11 | 77 | 1.6 | 1.6 | 0.00 | 0.00 | 0.00 | 89 | 1017.7 |
| 20260507051418 | 11 | 117 | 1.6 | 1.6 | 0.00 | 0.00 | 0.00 | 89 | 1017.8 |
| 20260507050915 | 11 | 132 | 1.6 | 1.6 | 0.00 | 0.00 | 0.00 | 88 | 1017.5 |
| 20260507050412 | 11 | 104 | 4.8 | 9.7 | 0.00 | 0.00 | 0.00 | 88 | 1018.0 |
| 20260507045909 | 11 | 91 | 3.2 | 4.8 | 0.00 | 0.00 | 0.00 | 88 | 1017.6 |
| 20260507045405 | 11 | 191 | 6.4 | 8.0 | 0.00 | 0.00 | 0.00 | 88 | 1017.7 |
| 20260507044902 | 11 | 224 | 4.8 | 4.8 | 0.00 | 0.00 | 0.00 | 88 | 1017.8 |
| 20260507044359 | 11 | 139 | 3.2 | 3.2 | 0.00 | 0.00 | 0.00 | 88 | 1017.6 |
| 20260507043855 | 11 | 75 | 4.8 | 4.8 | 0.00 | 0.00 | 0.00 | 88 | 1017.8 |
| 20260507043352 | 11 | 147 | 4.8 | 8.0 | 0.00 | 0.00 | 0.00 | 88 | 1017.7 |
| 20260507042848 | 11 | 176 | 3.2 | 4.8 | 0.00 | 0.00 | 0.00 | 88 | 1017.8 |
| 20260507042344 | 11 | 114 | 1.6 | 1.6 | 0.00 | 0.00 | 0.00 | 87 | 1017.6 |
| 20260507041840 | 11 | 57 | 3.2 | 3.2 | 0.00 | 0.00 | 0.00 | 87 | 1017.5 |
| 20260507041337 | 11 | 112 | 1.6 | 1.6 | 0.00 | 0.00 | 0.00 | 86 | 1017.5 |
| 20260507040835 | 11 | 109 | 1.6 | 1.6 | 0.00 | 0.00 | 0.00 | 86 | 1017.8 |
| 20260507040330 | 12 | 107 | 1.6 | 3.2 | 0.00 | 0.00 | 0.00 | 85 | 1017.7 |
| 20260507035827 | 12 | 161 | 1.6 | 1.6 | 0.00 | 0.00 | 0.00 | 85 | 1017.4 |
| 20260507035322 | 12 | 211 | 3.2 | 4.8 | 0.00 | 0.00 | 0.00 | 84 | 1017.4 |
| 20260507034820 | 12 | 150 | 4.8 | 8.0 | 0.00 | 0.00 | 0.00 | 84 | 1017.3 |
| 20260507034316 | 12 | 197 | 6.4 | 9.7 | 0.00 | 0.00 | 0.00 | 84 | 1017.4 |
| 20260507033815 | 12 | 127 | 4.8 | 8.0 | 0.00 | 0.00 | 0.00 | 84 | 1017.5 |
| 20260507033312 | 12 | 153 | 6.4 | 9.7 | 0.00 | 0.00 | 0.00 | 83 | 1017.5 |
| 20260507032809 | 12 | 143 | 1.6 | 3.2 | 0.00 | 0.00 | 0.00 | 83 | 1017.3 |
| 20260507032306 | 12 | 173 | 3.2 | 4.8 | 0.00 | 0.00 | 0.00 | 82 | 1017.4 |
| 20260507031802 | 12 | 69 | 4.8 | 4.8 | 0.00 | 0.00 | 0.00 | 82 | 1017.2 |
| 20260507031259 | 12 | 192 | 4.8 | 4.8 | 0.00 | 0.00 | 0.00 | 81 | 1017.2 |
| 20260507030755 | 12 | 123 | 3.2 | 3.2 | 0.00 | 0.00 | 0.00 | 81 | 1017.2 |
| 20260507030253 | 12 | 172 | 4.8 | 4.8 | 0.00 | 0.00 | 0.00 | 80 | 1017.3 |
| 20260507025750 | 12 | 151 | 4.8 | 4.8 | 0.00 | 0.00 | 0.00 | 80 | 1017.0 |
| 20260507025247 | 12 | 167 | 1.6 | 3.2 | 0.00 | 0.00 | 0.00 | 79 | 1016.9 |
| 20260507024745 | 12 | 106 | 4.8 | 9.7 | 0.00 | 0.00 | 0.00 | 79 | 1016.9 |
| 20260507024242 | 12 | 119 | 1.6 | 1.6 | 0.00 | 0.00 | 0.00 | 79 | 1017.2 |
| 20260507023737 | 12 | 130 | 3.2 | 3.2 | 0.00 | 0.00 | 0.00 | 78 | 1017.0 |
| 20260507023235 | 13 | 135 | 1.6 | 3.2 | 0.00 | 0.00 | 0.00 | 78 | 1016.8 |
| 20260507022732 | 13 | 97 | 1.6 | 4.8 | 0.00 | 0.00 | 0.00 | 78 | 1016.8 |
| 20260507022228 | 13 | 114 | 1.6 | 3.2 | 0.00 | 0.00 | 0.00 | 78 | 1016.9 |
| 20260507021724 | 13 | 160 | 4.8 | 8.0 | 0.00 | 0.00 | 0.00 | 78 | 1017.0 |
| 20260507021220 | 13 | 122 | 3.2 | 4.8 | 0.00 | 0.00 | 0.00 | 78 | 1016.8 |
| 20260507020718 | 13 | 127 | 3.2 | 3.2 | 0.00 | 0.00 | 0.00 | 78 | 1016.8 |
| 20260507020214 | 13 | 180 | 8.0 | 9.7 | 0.00 | 0.00 | 0.00 | 78 | 1016.9 |
| 20260507015712 | 13 | 103 | 0.0 | 0.0 | 0.00 | 0.00 | 0.00 | 78 | 1016.8 |
| 20260507015209 | 13 | 138 | 1.6 | 3.2 | 0.00 | 0.00 | 0.00 | 78 | 1016.9 |
| 20260507014706 | 13 | 123 | 1.6 | 1.6 | 0.00 | 0.00 | 0.00 | 78 | 1017.0 |
| 20260507014202 | 13 | 118 | 1.6 | 3.2 | 0.00 | 0.00 | 0.00 | 78 | 1017.0 |
| 20260507013659 | 13 | 175 | 3.2 | 4.8 | 0.00 | 0.00 | 0.00 | 77 | 1016.9 |
| 20260507013156 | 13 | 128 | 1.6 | 3.2 | 0.00 | 0.00 | 0.00 | 77 | 1016.8 |
| 20260507012654 | 13 | 169 | 1.6 | 1.6 | 0.00 | 0.00 | 0.00 | 77 | 1016.9 |
| 20260507012149 | 13 | 95 | 3.2 | 3.2 | 0.00 | 0.00 | 0.00 | 77 | 1017.0 |
| 20260507011647 | 13 | 215 | 3.2 | 4.8 | 0.00 | 0.00 | 0.00 | 78 | 1017.0 |
| 20260507011143 | 13 | 221 | 1.6 | 3.2 | 0.00 | 0.00 | 0.00 | 78 | 1017.0 |
| 20260507010638 | 13 | 146 | 3.2 | 3.2 | 0.00 | 0.00 | 0.00 | 78 | 1017.0 |
| 20260507010134 | 13 | 138 | 4.8 | 4.8 | 0.00 | 0.00 | 0.00 | 78 | 1017.0 |
| 20260507005632 | 13 | 193 | 4.8 | 4.8 | 0.00 | 0.00 | 0.00 | 77 | 1017.2 |
| 20260507005127 | 13 | 118 | 3.2 | 3.2 | 0.00 | 0.00 | 0.00 | 78 | 1016.9 |
| 20260507004624 | 13 | 222 | 6.4 | 8.0 | 0.00 | 0.00 | 0.00 | 78 | 1016.9 |
| 20260507004122 | 13 | 161 | 1.6 | 3.2 | 0.00 | 0.00 | 0.00 | 78 | 1016.7 |
| 20260507003618 | 13 | 149 | 3.2 | 4.8 | 0.00 | 0.00 | 0.00 | 77 | 1016.9 |
| 20260507003113 | 13 | 120 | 4.8 | 4.8 | 0.00 | 0.00 | 0.00 | 77 | 1017.0 |
| 20260507002610 | 13 | 115 | 1.6 | 3.2 | 0.00 | 0.00 | 0.00 | 77 | 1017.0 |
| 20260507002105 | 13 | 122 | 3.2 | 4.8 | 0.00 | 0.00 | 0.00 | 78 | 1017.0 |
| 20260507001603 | 13 | 174 | 6.4 | 11.3 | 0.00 | 0.00 | 0.00 | 77 | 1017.2 |
| 20260507001100 | 13 | 151 | 8.0 | 9.7 | 0.00 | 0.00 | 0.00 | 78 | 1017.0 |
| 20260507000556 | 13 | 97 | 0.0 | 1.6 | 0.00 | 0.00 | 0.00 | 78 | 1017.2 |
| 20260507000052 | 13 | 163 | 6.4 | 8.0 | 0.00 | 0.00 | 0.00 | 78 | 1017.5 |
| 20260506235550 | 12 | 124 | 3.2 | 4.8 | 0.00 | 0.00 | 0.00 | 79 | 1017.2 |
| 20260506235044 | 13 | 209 | 11.3 | 14.5 | 0.00 | 0.00 | 0.00 | 78 | 1016.9 |
| 20260506234542 | 13 | 136 | 4.8 | 4.8 | 0.00 | 0.00 | 0.00 | 78 | 1017.2 |
| 20260506234039 | 13 | 176 | 8.0 | 11.3 | 0.00 | 0.00 | 0.00 | 77 | 1017.2 |
| 20260506233536 | 13 | 169 | 8.0 | 12.9 | 0.00 | 0.00 | 0.00 | 77 | 1016.9 |
| 20260506233033 | 13 | 155 | 4.8 | 8.0 | 0.00 | 0.00 | 0.00 | 77 | 1017.0 |
| 20260506232529 | 13 | 98 | 4.8 | 8.0 | 0.00 | 0.00 | 0.00 | 77 | 1017.4 |
| 20260506232025 | 13 | 208 | 6.4 | 9.7 | 0.00 | 0.00 | 0.00 | 77 | 1017.2 |
| 20260506231522 | 13 | 200 | 4.8 | 4.8 | 0.00 | 0.00 | 0.00 | 77 | 1017.5 |
| 20260506231020 | 13 | 103 | 4.8 | 4.8 | 0.00 | 0.00 | 0.00 | 76 | 1017.2 |
| 20260506230516 | 13 | 119 | 1.6 | 1.6 | 0.00 | 0.00 | 0.00 | 76 | 1016.9 |
| 20260506230014 | 13 | 128 | 3.2 | 3.2 | 0.00 | 0.00 | 0.00 | 76 | 1017.2 |
| 20260506225511 | 13 | 147 | 1.6 | 3.2 | 0.00 | 0.00 | 0.00 | 76 | 1017.2 |
| 20260506225007 | 13 | 165 | 6.4 | 9.7 | 0.00 | 0.00 | 0.00 | 76 | 1017.2 |
| 20260506224504 | 13 | 260 | 6.4 | 8.0 | 0.00 | 0.00 | 0.00 | 75 | 1017.2 |
| 20260506224000 | 13 | 227 | 3.2 | 4.8 | 0.00 | 0.00 | 0.00 | 76 | 1017.2 |
| 20260506223456 | 13 | 193 | 3.2 | 3.2 | 0.00 | 0.00 | 0.00 | 75 | 1017.3 |
| 20260506222953 | 13 | 127 | 3.2 | 3.2 | 0.00 | 0.00 | 0.00 | 76 | 1017.2 |
| 20260506222450 | 13 | 327 | 4.8 | 4.8 | 0.00 | 0.00 | 0.00 | 75 | 1017.0 |
| 20260506221946 | 13 | 205 | 6.4 | 11.3 | 0.00 | 0.00 | 0.00 | 75 | 1017.4 |
| 20260506221444 | 13 | 201 | 8.0 | 11.3 | 0.00 | 0.00 | 0.00 | 74 | 1017.4 |
| 20260506220942 | 13 | 323 | 1.6 | 3.2 | 0.00 | 0.00 | 0.00 | 74 | 1017.3 |
| 20260506220437 | 13 | 303 | 3.2 | 4.8 | 0.00 | 0.00 | 0.00 | 73 | 1017.4 |
| 20260506215934 | 13 | 191 | 6.4 | 9.7 | 0.00 | 0.00 | 0.00 | 72 | 1017.3 |
| 20260506215430 | 13 | 140 | 8.0 | 9.7 | 0.00 | 0.00 | 0.00 | 72 | 1017.3 |
| 20260506214926 | 13 | 211 | 6.4 | 9.7 | 0.00 | 0.00 | 0.00 | 72 | 1017.3 |
| 20260506214423 | 13 | 186 | 3.2 | 3.2 | 0.00 | 0.00 | 0.00 | 72 | 1017.3 |
| 20260506213921 | 13 | 139 | 3.2 | 3.2 | 0.00 | 0.00 | 0.00 | 73 | 1017.4 |
| 20260506213418 | 13 | 46 | 3.2 | 3.2 | 0.00 | 0.00 | 0.00 | 73 | 1017.4 |
| 20260506212915 | 13 | 152 | 3.2 | 4.8 | 0.00 | 0.00 | 0.00 | 74 | 1017.3 |
| 20260506212411 | 13 | 106 | 1.6 | 1.6 | 0.00 | 0.00 | 0.00 | 75 | 1017.4 |
| 20260506211906 | 13 | 89 | 1.6 | 3.2 | 0.00 | 0.00 | 0.00 | 74 | 1017.5 |
| 20260506211402 | 13 | 136 | 3.2 | 3.2 | 0.00 | 0.00 | 0.00 | 75 | 1017.6 |
| 20260506210900 | 13 | 150 | 4.8 | 4.8 | 0.00 | 0.00 | 0.00 | 74 | 1017.8 |
| 20260506210356 | 13 | 143 | 4.8 | 8.0 | 0.00 | 0.00 | 0.00 | 75 | 1017.5 |
| 20260506205854 | 13 | 152 | 6.4 | 8.0 | 0.00 | 0.00 | 0.00 | 74 | 1017.4 |
| 20260506205349 | 13 | 216 | 8.0 | 11.3 | 0.00 | 0.00 | 0.00 | 74 | 1017.4 |
| 20260506204846 | 13 | 207 | 6.4 | 9.7 | 0.00 | 0.00 | 0.00 | 75 | 1017.3 |
| 20260506204344 | 13 | 275 | 6.4 | 9.7 | 0.00 | 0.00 | 0.00 | 75 | 1017.3 |
| 20260506203841 | 13 | 96 | 6.4 | 9.7 | 0.00 | 0.00 | 0.00 | 75 | 1017.3 |
| 20260506203338 | 13 | 236 | 8.0 | 12.9 | 0.00 | 0.00 | 0.00 | 75 | 1017.5 |
| 20260506202835 | 13 | 222 | 4.8 | 8.0 | 0.00 | 0.00 | 0.00 | 76 | 1017.4 |
| 20260506202332 | 13 | 162 | 8.0 | 11.3 | 0.00 | 0.00 | 0.00 | 75 | 1017.3 |
| 20260506201828 | 13 | 186 | 8.0 | 11.3 | 0.00 | 0.00 | 0.00 | 75 | 1017.2 |
| 20260506201326 | 13 | 228 | 6.4 | 11.3 | 0.00 | 0.00 | 0.00 | 75 | 1017.4 |
| 20260506200823 | 13 | 241 | 4.8 | 8.0 | 0.00 | 0.00 | 0.00 | 76 | 1017.3 |
| 20260506200319 | 13 | 246 | 4.8 | 8.0 | 0.00 | 0.00 | 0.00 | 75 | 1017.2 |
| 20260506195815 | 13 | 142 | 4.8 | 4.8 | 0.00 | 0.00 | 0.00 | 75 | 1017.0 |
| 20260506195312 | 13 | 65 | 3.2 | 4.8 | 0.00 | 0.00 | 0.00 | 76 | 1017.2 |
| 20260506194809 | 12 | 79 | 1.6 | 3.2 | 0.00 | 0.00 | 0.00 | 78 | 1017.0 |
| 20260506194305 | 12 | 274 | 8.0 | 11.3 | 0.00 | 0.00 | 0.00 | 78 | 1017.2 |
| 20260506193803 | 12 | 158 | 4.8 | 9.7 | 0.00 | 0.00 | 0.00 | 78 | 1017.2 |
| 20260506193300 | 12 | 270 | 3.2 | 4.8 | 0.00 | 0.00 | 0.00 | 79 | 1017.2 |
| 20260506192756 | 12 | 179 | 4.8 | 4.8 | 0.00 | 0.00 | 0.00 | 80 | 1017.2 |
| 20260506192253 | 12 | 311 | 4.8 | 4.8 | 0.00 | 0.00 | 0.00 | 80 | 1016.9 |
| 20260506191750 | 12 | 117 | 3.2 | 3.2 | 0.00 | 0.00 | 0.00 | 80 | 1016.9 |
| 20260506191246 | 12 | 132 | 8.0 | 11.3 | 0.00 | 0.00 | 0.00 | 80 | 1016.9 |
| 20260506190744 | 12 | 62 | 3.2 | 3.2 | 0.00 | 0.00 | 0.00 | 82 | 1017.2 |
| 20260506190240 | 12 | 173 | 3.2 | 3.2 | 0.00 | 0.00 | 0.00 | 82 | 1017.0 |
| 20260506185737 | 12 | 130 | 1.6 | 3.2 | 0.00 | 0.00 | 0.00 | 83 | 1017.0 |
| 20260506185234 | 12 | 93 | 0.0 | 0.0 | 0.00 | 0.00 | 0.00 | 85 | 1016.9 |
| 20260506184731 | 12 | 143 | 3.2 | 3.2 | 0.00 | 0.00 | 0.00 | 84 | 1016.8 |
| 20260506184228 | 12 | 145 | 1.6 | 3.2 | 0.00 | 0.00 | 0.00 | 85 | 1017.0 |
| 20260506183725 | 11 | 104 | 3.2 | 3.2 | 0.00 | 0.00 | 0.00 | 85 | 1016.9 |
| 20260506183220 | 11 | 190 | 4.8 | 4.8 | 0.00 | 0.00 | 0.00 | 86 | 1017.0 |
| 20260506182718 | 11 | 219 | 1.6 | 4.8 | 0.00 | 0.00 | 0.00 | 87 | 1016.9 |
| 20260506182215 | 11 | 98 | 0.0 | 1.6 | 0.00 | 0.00 | 0.00 | 88 | 1017.0 |
| 20260506181713 | 11 | 305 | 3.2 | 3.2 | 0.00 | 0.00 | 0.00 | 88 | 1017.3 |
| 20260506181210 | 11 | 106 | 3.2 | 3.2 | 0.00 | 0.00 | 0.00 | 88 | 1016.8 |
| 20260506180707 | 11 | 297 | 3.2 | 4.8 | 0.00 | 0.00 | 0.00 | 89 | 1016.9 |
| 20260506180203 | 11 | 63 | 1.6 | 1.6 | 0.00 | 0.00 | 0.00 | 90 | 1016.8 |
| 20260506175659 | 11 | 125 | 4.8 | 4.8 | 0.00 | 0.00 | 0.00 | 90 | 1016.6 |
| 20260506175156 | 11 | 114 | 3.2 | 3.2 | 0.00 | 0.00 | 0.00 | 91 | 1016.7 |
| 20260506174649 | 11 | 163 | 3.2 | 4.8 | 0.00 | 0.00 | 0.00 | 90 | 1016.8 |
| 20260506174145 | 11 | 131 | 3.2 | 3.2 | 0.00 | 0.00 | 0.00 | 92 | 1016.6 |
| 20260506173643 | 11 | 194 | 3.2 | 4.8 | 0.00 | 0.00 | 0.00 | 93 | 1016.4 |
| 20260506173134 | 11 | 266 | 1.6 | 3.2 | 0.00 | 0.00 | 0.00 | 93 | 1016.7 |
| 20260506172631 | 11 | 107 | 1.6 | 1.6 | 0.00 | 0.00 | 0.00 | 94 | 1016.7 |
| 20260506172127 | 11 | 244 | 8.0 | 11.3 | 0.00 | 0.00 | 0.00 | 94 | 1016.8 |
| 20260506171625 | 11 | 75 | 1.6 | 1.6 | 0.00 | 0.00 | 0.00 | 94 | 1016.8 |
| 20260506171122 | 11 | 185 | 4.8 | 4.8 | 0.00 | 0.00 | 0.00 | 95 | 1016.8 |
| 20260506170619 | 11 | 76 | 1.6 | 1.6 | 0.00 | 0.00 | 0.00 | 95 | 1017.0 |
| 20260506170111 | 11 | 95 | 1.6 | 3.2 | 0.00 | 0.00 | 0.00 | 95 | 1016.9 |
| 20260506165610 | 10 | 102 | 3.2 | 3.2 | 0.00 | 0.00 | 0.00 | 95 | 1016.8 |
| 20260506165105 | 10 | 97 | 1.6 | 1.6 | 0.00 | 0.00 | 0.00 | 95 | 1016.7 |
| 20260506164603 | 10 | 145 | 4.8 | 8.0 | 0.00 | 0.00 | 0.00 | 95 | 1016.6 |
| 20260506164100 | 10 | 139 | 4.8 | 4.8 | 0.00 | 0.00 | 0.00 | 95 | 1016.9 |
| 20260506163555 | 10 | 109 | 3.2 | 3.2 | 0.00 | 0.00 | 0.00 | 95 | 1016.7 |
| 20260506163052 | 10 | 101 | 1.6 | 1.6 | 0.00 | 0.00 | 0.00 | 95 | 1016.5 |
| 20260506162548 | 11 | 118 | 1.6 | 3.2 | 0.00 | 0.00 | 0.00 | 94 | 1016.5 |
| 20260506162045 | 11 | 85 | 0.0 | 0.0 | 0.00 | 0.00 | 0.00 | 95 | 1016.3 |
| 20260506161543 | 11 | 209 | 6.4 | 9.7 | 0.00 | 0.00 | 0.00 | 95 | 1016.3 |
| 20260506161039 | 10 | 106 | 3.2 | 4.8 | 0.00 | 0.00 | 0.00 | 95 | 1016.1 |
| 20260506160537 | 10 | 179 | 3.2 | 4.8 | 0.00 | 0.00 | 0.00 | 95 | 1016.0 |
| 20260506160034 | 10 | 166 | 4.8 | 8.0 | 0.00 | 0.00 | 0.00 | 94 | 1016.0 |
| 20260506155532 | 10 | 124 | 3.2 | 4.8 | 0.00 | 0.00 | 0.00 | 95 | 1016.3 |
| 20260506153709 | 10 | 116 | 1.6 | 3.2 | 0.00 | 0.00 | 0.00 | 95 | 1016.6 |
| 20260506153207 | 10 | 119 | 1.6 | 1.6 | 0.00 | 0.00 | 0.00 | 95 | 1016.6 |
| 20260506152703 | 10 | 102 | 1.6 | 1.6 | 0.00 | 0.00 | 0.00 | 95 | 1016.5 |
| 20260506152201 | 10 | 82 | 1.6 | 1.6 | 0.00 | 0.00 | 0.00 | 95 | 1016.5 |
| 20260506151700 | 10 | 180 | 6.4 | 8.0 | 0.00 | 0.00 | 0.00 | 95 | 1016.4 |
| 20260506151156 | 10 | 156 | 3.2 | 3.2 | 0.00 | 0.00 | 0.00 | 95 | 1016.2 |
| 20260506150652 | 10 | 41 | 3.2 | 4.8 | 0.00 | 0.00 | 0.00 | 95 | 1016.2 |
| 20260506150150 | 10 | 131 | 3.2 | 3.2 | 0.00 | 0.00 | 0.00 | 95 | 1016.0 |
| 20260506145646 | 10 | 138 | 3.2 | 9.7 | 0.00 | 0.00 | 0.00 | 95 | 1015.9 |
| 20260506145143 | 10 | 133 | 3.2 | 4.8 | 0.00 | 0.00 | 0.00 | 95 | 1016.0 |
| 20260506144641 | 10 | 120 | 1.6 | 3.2 | 0.00 | 0.00 | 0.00 | 95 | 1016.2 |
| 20260506144137 | 10 | 145 | 4.8 | 4.8 | 0.00 | 0.00 | 0.00 | 95 | 1016.3 |
| 20260506143635 | 10 | 149 | 1.6 | 1.6 | 0.00 | 0.00 | 0.00 | 95 | 1016.5 |
| 20260506143133 | 10 | 190 | 3.2 | 3.2 | 0.00 | 0.00 | 0.00 | 94 | 1016.5 |
| 20260506142631 | 10 | 206 | 1.6 | 3.2 | 0.00 | 0.00 | 0.00 | 94 | 1016.4 |
| 20260506142129 | 10 | 107 | 1.6 | 1.6 | 0.00 | 0.00 | 0.00 | 94 | 1016.1 |
| 20260506141626 | 10 | 228 | 3.2 | 3.2 | 0.00 | 0.00 | 0.00 | 94 | 1016.2 |
| 20260506141125 | 10 | 147 | 3.2 | 3.2 | 0.00 | 0.00 | 0.00 | 94 | 1015.8 |
| 20260506140622 | 10 | 124 | 3.2 | 3.2 | 0.00 | 0.00 | 0.00 | 94 | 1016.1 |
| 20260506140119 | 10 | 127 | 3.2 | 3.2 | 0.00 | 0.00 | 0.00 | 94 | 1015.9 |
| 20260506135616 | 10 | 109 | 1.6 | 1.6 | 0.00 | 0.00 | 0.00 | 94 | 1015.9 |
| 20260506135112 | 10 | 136 | 0.0 | 1.6 | 0.00 | 0.00 | 0.00 | 93 | 1015.9 |
| 20260506134609 | 10 | 132 | 1.6 | 3.2 | 0.00 | 0.00 | 0.00 | 93 | 1015.8 |
| 20260506134104 | 10 | 94 | 1.6 | 1.6 | 0.00 | 0.00 | 0.00 | 93 | 1015.9 |
| 20260506133602 | 10 | 86 | 1.6 | 1.6 | 0.00 | 0.00 | 0.00 | 93 | 1015.8 |
| 20260506133059 | 10 | 175 | 4.8 | 4.8 | 0.00 | 0.00 | 0.00 | 93 | 1016.0 |
| 20260506132556 | 10 | 295 | 3.2 | 3.2 | 0.00 | 0.00 | 0.00 | 92 | 1016.0 |
| 20260506132053 | 10 | 164 | 4.8 | 4.8 | 0.00 | 0.00 | 0.00 | 92 | 1015.6 |
| 20260506131550 | 10 | 126 | 1.6 | 1.6 | 0.00 | 0.00 | 0.00 | 92 | 1015.7 |
| 20260506131046 | 11 | 164 | 4.8 | 4.8 | 0.00 | 0.00 | 0.00 | 92 | 1015.7 |
| 20260506130543 | 11 | 113 | 3.2 | 3.2 | 0.00 | 0.00 | 0.00 | 91 | 1015.9 |
| 20260506130041 | 11 | 99 | 1.6 | 1.6 | 0.00 | 0.00 | 0.00 | 91 | 1015.4 |
| 20260506125539 | 11 | 192 | 4.8 | 8.0 | 0.00 | 0.00 | 0.00 | 91 | 1015.5 |
| 20260506125037 | 11 | 129 | 3.2 | 4.8 | 0.00 | 0.00 | 0.00 | 92 | 1015.4 |
| 20260506124534 | 11 | 123 | 1.6 | 3.2 | 0.00 | 0.00 | 0.00 | 92 | 1015.4 |
| 20260506124032 | 11 | 105 | 3.2 | 4.8 | 0.00 | 0.00 | 0.00 | 92 | 1015.3 |
| 20260506123529 | 11 | 151 | 1.6 | 3.2 | 0.00 | 0.00 | 0.00 | 92 | 1015.4 |
| 20260506123027 | 11 | 114 | 1.6 | 1.6 | 0.00 | 0.00 | 0.00 | 92 | 1015.5 |
| 20260506122524 | 11 | 162 | 6.4 | 9.7 | 0.00 | 0.00 | 0.00 | 92 | 1015.2 |
| 20260506122022 | 11 | 79 | 3.2 | 4.8 | 0.00 | 0.00 | 0.00 | 91 | 1015.3 |
| 20260506121519 | 11 | 167 | 3.2 | 4.8 | 0.00 | 0.00 | 0.00 | 91 | 1015.4 |
| 20260506121015 | 11 | 76 | 3.2 | 4.8 | 0.00 | 0.00 | 0.00 | 91 | 1015.1 |
| 20260506120514 | 11 | 217 | 3.2 | 4.8 | 0.00 | 0.00 | 0.00 | 91 | 1015.4 |
| 20260506120011 | 11 | 115 | 1.6 | 1.6 | 0.00 | 0.00 | 0.00 | 91 | 1015.1 |
| 20260506115508 | 11 | 178 | 4.8 | 4.8 | 0.00 | 0.00 | 0.00 | 91 | 1015.1 |
| 20260506115007 | 11 | 192 | 3.2 | 3.2 | 0.00 | 0.00 | 0.00 | 91 | 1015.0 |
| 20260506114504 | 11 | 102 | 1.6 | 1.6 | 0.00 | 0.00 | 0.00 | 91 | 1015.1 |
| 20260506114002 | 11 | 187 | 4.8 | 4.8 | 0.00 | 0.00 | 0.00 | 90 | 1015.0 |
| 20260506113459 | 11 | 93 | 1.6 | 3.2 | 0.00 | 0.00 | 0.00 | 90 | 1015.0 |
| 20260506112956 | 11 | 91 | 3.2 | 3.2 | 0.00 | 0.00 | 0.00 | 89 | 1014.9 |
| 20260506112453 | 11 | 206 | 3.2 | 4.8 | 0.00 | 0.00 | 0.00 | 89 | 1015.1 |
| 20260506111950 | 11 | 129 | 3.2 | 4.8 | 0.00 | 0.00 | 0.00 | 89 | 1015.1 |
| 20260506111449 | 11 | 108 | 1.6 | 3.2 | 0.00 | 0.00 | 0.00 | 88 | 1014.9 |
| 20260506110945 | 11 | 103 | 1.6 | 1.6 | 0.00 | 0.00 | 0.00 | 89 | 1015.0 |
| 20260506110443 | 11 | 94 | 4.8 | 4.8 | 0.00 | 0.00 | 0.00 | 89 | 1015.0 |
| 20260506105939 | 11 | 84 | 1.6 | 1.6 | 0.00 | 0.00 | 0.00 | 89 | 1014.8 |
| 20260506105436 | 11 | 207 | 3.2 | 4.8 | 0.00 | 0.00 | 0.00 | 89 | 1014.9 |
| 20260506104933 | 11 | 169 | 1.6 | 1.6 | 0.00 | 0.00 | 0.00 | 89 | 1014.7 |
| 20260506104431 | 11 | 177 | 4.8 | 8.0 | 0.00 | 0.00 | 0.00 | 89 | 1014.6 |
| 20260506103929 | 11 | 192 | 3.2 | 4.8 | 0.00 | 0.00 | 0.00 | 89 | 1014.6 |
| 20260506103427 | 11 | 151 | 3.2 | 4.8 | 0.00 | 0.00 | 0.00 | 89 | 1014.4 |
| 20260506102923 | 11 | 208 | 4.8 | 8.0 | 0.00 | 0.00 | 0.00 | 89 | 1014.7 |
| 20260506102421 | 11 | 131 | 4.8 | 8.0 | 0.00 | 0.00 | 0.00 | 89 | 1014.7 |
| 20260506101918 | 11 | 254 | 6.4 | 11.3 | 0.00 | 0.00 | 0.00 | 89 | 1014.5 |
| 20260506101414 | 11 | 117 | 3.2 | 4.8 | 0.00 | 0.00 | 0.00 | 89 | 1014.4 |
| 20260506100912 | 11 | 114 | 1.6 | 3.2 | 0.00 | 0.00 | 0.00 | 89 | 1014.6 |
| 20260506100410 | 11 | 211 | 3.2 | 3.2 | 0.00 | 0.00 | 0.00 | 89 | 1014.3 |
| 20260506095908 | 11 | 158 | 3.2 | 3.2 | 0.00 | 0.00 | 0.00 | 89 | 1014.2 |